sensor_id;sensor_type;location;lat;lon;timestamp;pressure;altitude;pressure_sealevel;temperature;humidity
50867;BME280;36839;51.946;21.002;2022-09-09T00:04:36;99844.98;;;11.37;100.00
50867;BME280;36839;51.946;21.002;2022-09-09T00:07:13;99850.22;;;11.39;100.00
50867;BME280;36839;51.946;21.002;2022-09-09T00:09:58;99853.55;;;11.38;100.00
50867;BME280;36839;51.946;21.002;2022-09-09T00:15:14;99868.75;;;11.38;100.00
50867;BME280;36839;51.946;21.002;2022-09-09T00:17:58;99868.75;;;11.38;100.00
50867;BME280;36839;51.946;21.002;2022-09-09T00:20:35;99858.20;;;11.43;100.00
50867;BME280;36839;51.946;21.002;2022-09-09T00:28:27;99853.79;;;11.42;100.00
50867;BME280;36839;51.946;21.002;2022-09-09T00:30:56;99860.70;;;11.42;100.00
50867;BME280;36839;51.946;21.002;2022-09-09T00:33:25;99859.30;;;11.47;100.00
50867;BME280;36839;51.946;21.002;2022-09-09T00:35:58;99857.91;;;11.44;100.00
50867;BME280;36839;51.946;21.002;2022-09-09T00:38:41;99857.91;;;11.44;100.00
50867;BME280;36839;51.946;21.002;2022-09-09T00:44:39;99872.27;;;11.52;100.00
50867;BME280;36839;51.946;21.002;2022-09-09T00:47:34;99870.30;;;11.55;100.00
50867;BME280;36839;51.946;21.002;2022-09-09T00:50:15;99870.30;;;11.55;100.00
50867;BME280;36839;51.946;21.002;2022-09-09T00:52:52;99870.84;;;11.59;100.00
50867;BME280;36839;51.946;21.002;2022-09-09T00:57:50;99854.83;;;11.56;100.00
50867;BME280;36839;51.946;21.002;2022-09-09T01:00:29;99852.84;;;11.62;100.00
50867;BME280;36839;51.946;21.002;2022-09-09T01:03:19;99847.86;;;11.61;100.00
50867;BME280;36839;51.946;21.002;2022-09-09T01:10:52;99826.85;;;11.60;100.00
50867;BME280;36839;51.946;21.002;2022-09-09T01:13:32;99836.48;;;11.65;100.00
50867;BME280;36839;51.946;21.002;2022-09-09T01:16:01;99831.53;;;11.62;100.00
50867;BME280;36839;51.946;21.002;2022-09-09T01:18:36;99831.53;;;11.62;100.00
50867;BME280;36839;51.946;21.002;2022-09-09T01:21:14;99847.29;;;11.67;100.00
50867;BME280;36839;51.946;21.002;2022-09-09T01:26:42;99847.00;;;11.68;100.00
50867;BME280;36839;51.946;21.002;2022-09-09T01:29:12;99848.11;;;11.67;100.00
50867;BME280;36839;51.946;21.002;2022-09-09T01:32:02;99844.81;;;11.63;100.00
50867;BME280;36839;51.946;21.002;2022-09-09T01:34:37;99844.81;;;11.63;100.00
50867;BME280;36839;51.946;21.002;2022-09-09T01:37:10;99842.87;;;11.63;100.00
50867;BME280;36839;51.946;21.002;2022-09-09T01:39:40;99852.58;;;11.61;100.00
50867;BME280;36839;51.946;21.002;2022-09-09T01:42:09;99852.58;;;11.61;100.00
50867;BME280;36839;51.946;21.002;2022-09-09T01:44:38;99851.77;;;11.58;100.00
50867;BME280;36839;51.946;21.002;2022-09-09T01:47:08;99860.05;;;11.60;100.00
50867;BME280;36839;51.946;21.002;2022-09-09T01:49:37;99847.91;;;11.56;100.00
50867;BME280;36839;51.946;21.002;2022-09-09T01:52:05;99846.75;;;11.62;100.00
50867;BME280;36839;51.946;21.002;2022-09-09T01:54:35;99838.50;;;11.55;100.00
50867;BME280;36839;51.946;21.002;2022-09-09T01:57:31;99838.50;;;11.55;100.00
50867;BME280;36839;51.946;21.002;2022-09-09T02:00:06;99845.92;;;11.62;100.00
50867;BME280;36839;51.946;21.002;2022-09-09T02:05:39;99839.28;;;11.63;100.00
50867;BME280;36839;51.946;21.002;2022-09-09T02:08:15;99838.41;;;11.70;100.00
50867;BME280;36839;51.946;21.002;2022-09-09T02:10:50;99838.41;;;11.70;100.00
50867;BME280;36839;51.946;21.002;2022-09-09T02:13:17;99841.17;;;11.70;100.00
50867;BME280;36839;51.946;21.002;2022-09-09T02:15:58;99834.55;;;11.68;100.00
50867;BME280;36839;51.946;21.002;2022-09-09T02:18:30;99836.20;;;11.69;100.00
50867;BME280;36839;51.946;21.002;2022-09-09T02:20:58;99827.63;;;11.68;100.00
50867;BME280;36839;51.946;21.002;2022-09-09T02:23:26;99843.06;;;11.74;100.00
50867;BME280;36839;51.946;21.002;2022-09-09T02:25:57;99839.21;;;11.76;100.00
50867;BME280;36839;51.946;21.002;2022-09-09T02:28:31;99839.21;;;11.76;100.00
50867;BME280;36839;51.946;21.002;2022-09-09T02:31:00;99835.86;;;11.79;100.00
50867;BME280;36839;51.946;21.002;2022-09-09T02:33:31;99827.02;;;11.74;100.00
50867;BME280;36839;51.946;21.002;2022-09-09T02:35:58;99827.02;;;11.74;100.00
50867;BME280;36839;51.946;21.002;2022-09-09T02:38:29;99837.27;;;11.76;100.00
50867;BME280;36839;51.946;21.002;2022-09-09T02:41:00;99835.34;;;11.71;100.00
50867;BME280;36839;51.946;21.002;2022-09-09T02:43:33;99843.08;;;11.80;100.00
50867;BME280;36839;51.946;21.002;2022-09-09T02:49:03;99842.22;;;11.79;100.00
50867;BME280;36839;51.946;21.002;2022-09-09T02:54:28;99831.47;;;11.75;100.00
50867;BME280;36839;51.946;21.002;2022-09-09T02:59:39;99846.66;;;11.78;100.00
50867;BME280;36839;51.946;21.002;2022-09-09T03:02:08;99843.06;;;11.74;100.00
50867;BME280;36839;51.946;21.002;2022-09-09T03:04:36;99840.86;;;11.77;100.00
50867;BME280;36839;51.946;21.002;2022-09-09T03:07:07;99840.86;;;11.77;100.00
50867;BME280;36839;51.946;21.002;2022-09-09T03:09:34;99841.40;;;11.81;100.00
50867;BME280;36839;51.946;21.002;2022-09-09T03:12:02;99840.55;;;11.83;100.00
50867;BME280;36839;51.946;21.002;2022-09-09T03:14:32;99836.66;;;11.84;100.00
50867;BME280;36839;51.946;21.002;2022-09-09T03:16:59;99835.28;;;11.84;100.00
50867;BME280;36839;51.946;21.002;2022-09-09T03:19:27;99833.37;;;11.85;100.00
50867;BME280;36839;51.946;21.002;2022-09-09T03:21:54;99837.78;;;11.83;100.00
50867;BME280;36839;51.946;21.002;2022-09-09T03:24:20;99835.84;;;11.84;100.00
50867;BME280;36839;51.946;21.002;2022-09-09T03:26:49;99835.84;;;11.84;100.00
50867;BME280;36839;51.946;21.002;2022-09-09T03:29:19;99834.75;;;11.82;100.00
50867;BME280;36839;51.946;21.002;2022-09-09T03:31:47;99834.75;;;11.82;100.00
50867;BME280;36839;51.946;21.002;2022-09-09T03:34:16;99826.98;;;11.84;100.00
50867;BME280;36839;51.946;21.002;2022-09-09T03:36:44;99826.72;;;11.86;100.00
50867;BME280;36839;51.946;21.002;2022-09-09T03:39:17;99821.73;;;11.85;100.00
50867;BME280;36839;51.946;21.002;2022-09-09T03:41:44;99821.73;;;11.85;100.00
50867;BME280;36839;51.946;21.002;2022-09-09T03:44:11;99830.84;;;11.88;100.00
50867;BME280;36839;51.946;21.002;2022-09-09T03:46:37;99834.98;;;11.88;100.00
50867;BME280;36839;51.946;21.002;2022-09-09T03:49:06;99836.64;;;11.89;100.00
50867;BME280;36839;51.946;21.002;2022-09-09T03:51:35;99834.72;;;11.87;100.00
50867;BME280;36839;51.946;21.002;2022-09-09T03:54:03;99842.20;;;11.87;100.00
50867;BME280;36839;51.946;21.002;2022-09-09T03:56:32;99845.23;;;11.88;100.00
50867;BME280;36839;51.946;21.002;2022-09-09T03:58:58;99838.91;;;11.85;100.00
50867;BME280;36839;51.946;21.002;2022-09-09T04:01:27;99838.91;;;11.85;100.00
50867;BME280;36839;51.946;21.002;2022-09-09T04:03:55;99840.20;;;11.92;100.00
50867;BME280;36839;51.946;21.002;2022-09-09T04:06:24;99840.47;;;11.93;100.00
50867;BME280;36839;51.946;21.002;2022-09-09T04:08:50;99841.32;;;11.94;100.00
50867;BME280;36839;51.946;21.002;2022-09-09T04:11:18;99841.32;;;11.94;100.00
50867;BME280;36839;51.946;21.002;2022-09-09T04:13:47;99828.87;;;11.91;100.00
50867;BME280;36839;51.946;21.002;2022-09-09T04:16:16;99838.27;;;11.95;100.00
50867;BME280;36839;51.946;21.002;2022-09-09T04:18:44;99838.27;;;11.95;100.00
50867;BME280;36839;51.946;21.002;2022-09-09T04:21:11;99834.34;;;11.99;100.00
50867;BME280;36839;51.946;21.002;2022-09-09T04:23:42;99824.66;;;11.99;100.00
50867;BME280;36839;51.946;21.002;2022-09-09T04:26:10;99831.31;;;11.98;100.00
50867;BME280;36839;51.946;21.002;2022-09-09T04:28:40;99831.31;;;11.98;100.00
50867;BME280;36839;51.946;21.002;2022-09-09T04:31:21;99842.09;;;11.99;100.00
50867;BME280;36839;51.946;21.002;2022-09-09T04:33:49;99846.77;;;12.01;100.00
50867;BME280;36839;51.946;21.002;2022-09-09T04:36:16;99845.39;;;12.01;100.00
50867;BME280;36839;51.946;21.002;2022-09-09T04:38:47;99844.83;;;12.02;100.00
50867;BME280;36839;51.946;21.002;2022-09-09T04:41:19;99844.83;;;12.02;100.00
50867;BME280;36839;51.946;21.002;2022-09-09T04:43:46;99840.13;;;12.05;100.00
50867;BME280;36839;51.946;21.002;2022-09-09T04:46:13;99843.19;;;12.04;100.00
50867;BME280;36839;51.946;21.002;2022-09-09T04:48:44;99843.19;;;12.04;100.00
50867;BME280;36839;51.946;21.002;2022-09-09T04:51:13;99849.52;;;12.07;100.00
50867;BME280;36839;51.946;21.002;2022-09-09T04:53:42;99854.23;;;12.06;100.00
50867;BME280;36839;51.946;21.002;2022-09-09T04:56:11;99843.18;;;12.01;100.00
50867;BME280;36839;51.946;21.002;2022-09-09T04:58:40;99856.47;;;12.04;100.00
50867;BME280;36839;51.946;21.002;2022-09-09T05:01:21;99856.47;;;12.04;100.00
50867;BME280;36839;51.946;21.002;2022-09-09T05:03:56;99853.40;;;12.03;100.00
50867;BME280;36839;51.946;21.002;2022-09-09T05:06:26;99856.44;;;12.07;100.00
50867;BME280;36839;51.946;21.002;2022-09-09T05:08:56;99856.44;;;12.07;100.00
50867;BME280;36839;51.946;21.002;2022-09-09T05:11:26;99855.87;;;12.07;100.00
50867;BME280;36839;51.946;21.002;2022-09-09T05:13:54;99861.44;;;12.05;100.00
50867;BME280;36839;51.946;21.002;2022-09-09T05:16:26;99863.63;;;12.08;100.00
50867;BME280;36839;51.946;21.002;2022-09-09T05:18:52;99869.92;;;12.16;100.00
50867;BME280;36839;51.946;21.002;2022-09-09T05:21:21;99869.90;;;12.18;100.00
50867;BME280;36839;51.946;21.002;2022-09-09T05:23:49;99869.90;;;12.18;100.00
50867;BME280;36839;51.946;21.002;2022-09-09T05:26:20;99858.32;;;12.14;100.00
50867;BME280;36839;51.946;21.002;2022-09-09T05:28:50;99858.32;;;12.14;100.00
50867;BME280;36839;51.946;21.002;2022-09-09T05:31:18;99859.62;;;12.21;100.00
50867;BME280;36839;51.946;21.002;2022-09-09T05:33:48;99853.52;;;12.22;100.00
50867;BME280;36839;51.946;21.002;2022-09-09T05:36:18;99850.75;;;12.22;100.00
50867;BME280;36839;51.946;21.002;2022-09-09T05:38:47;99860.15;;;12.26;100.00
50867;BME280;36839;51.946;21.002;2022-09-09T05:41:17;99859.59;;;12.26;100.00
50867;BME280;36839;51.946;21.002;2022-09-09T05:43:45;99859.27;;;12.30;100.00
50867;BME280;36839;51.946;21.002;2022-09-09T05:46:16;99870.31;;;12.36;100.00
50867;BME280;36839;51.946;21.002;2022-09-09T05:48:46;99870.31;;;12.36;100.00
50867;BME280;36839;51.946;21.002;2022-09-09T05:51:17;99868.59;;;12.40;100.00
50867;BME280;36839;51.946;21.002;2022-09-09T05:53:45;99871.07;;;12.44;100.00
50867;BME280;36839;51.946;21.002;2022-09-09T05:56:16;99867.14;;;12.47;100.00
50867;BME280;36839;51.946;21.002;2022-09-09T05:58:49;99876.02;;;12.47;100.00
50867;BME280;36839;51.946;21.002;2022-09-09T06:01:22;99871.00;;;12.51;100.00
50867;BME280;36839;51.946;21.002;2022-09-09T06:03:52;99871.00;;;12.51;100.00
50867;BME280;36839;51.946;21.002;2022-09-09T06:06:30;99891.22;;;12.52;100.00
50867;BME280;36839;51.946;21.002;2022-09-09T06:08:57;99884.63;;;12.45;100.00
50867;BME280;36839;51.946;21.002;2022-09-09T06:11:26;99883.23;;;12.45;100.00
50867;BME280;36839;51.946;21.002;2022-09-09T06:13:54;99883.23;;;12.45;100.00
50867;BME280;36839;51.946;21.002;2022-09-09T06:16:23;99892.87;;;12.53;100.00
50867;BME280;36839;51.946;21.002;2022-09-09T06:18:51;99887.56;;;12.56;100.00
50867;BME280;36839;51.946;21.002;2022-09-09T06:21:22;99895.84;;;12.59;100.00
50867;BME280;36839;51.946;21.002;2022-09-09T06:23:54;99898.05;;;12.62;100.00
50867;BME280;36839;51.946;21.002;2022-09-09T06:26:24;99904.08;;;12.67;100.00
50867;BME280;36839;51.946;21.002;2022-09-09T06:28:54;99904.08;;;12.67;100.00
50867;BME280;36839;51.946;21.002;2022-09-09T06:31:24;99900.19;;;12.68;100.00
50867;BME280;36839;51.946;21.002;2022-09-09T06:33:54;99899.33;;;12.72;100.00
50867;BME280;36839;51.946;21.002;2022-09-09T06:36:23;99899.33;;;12.72;100.00
50867;BME280;36839;51.946;21.002;2022-09-09T06:38:53;99899.56;;;12.76;100.00
50867;BME280;36839;51.946;21.002;2022-09-09T06:41:23;99905.62;;;12.80;100.00
50867;BME280;36839;51.946;21.002;2022-09-09T06:43:51;99903.88;;;12.87;100.00
50867;BME280;36839;51.946;21.002;2022-09-09T06:46:20;99900.02;;;12.85;100.00
50867;BME280;36839;51.946;21.002;2022-09-09T06:48:52;99900.80;;;12.88;100.00
50867;BME280;36839;51.946;21.002;2022-09-09T06:51:22;99903.27;;;12.93;100.00
50867;BME280;36839;51.946;21.002;2022-09-09T06:53:58;99903.27;;;12.93;100.00
50867;BME280;36839;51.946;21.002;2022-09-09T06:56:34;99909.34;;;12.95;100.00
50867;BME280;36839;51.946;21.002;2022-09-09T06:59:05;99908.41;;;13.04;100.00
50867;BME280;36839;51.946;21.002;2022-09-09T07:01:40;99912.56;;;13.04;100.00
50867;BME280;36839;51.946;21.002;2022-09-09T07:04:16;99918.36;;;13.08;100.00
50867;BME280;36839;51.946;21.002;2022-09-09T07:06:47;99908.27;;;13.20;100.00
50867;BME280;36839;51.946;21.002;2022-09-09T07:09:16;99915.39;;;13.26;100.00
50867;BME280;36839;51.946;21.002;2022-09-09T07:11:44;99915.39;;;13.26;100.00
50867;BME280;36839;51.946;21.002;2022-09-09T07:14:11;99911.14;;;13.33;100.00
50867;BME280;36839;51.946;21.002;2022-09-09T07:16:45;99921.53;;;13.47;100.00
50867;BME280;36839;51.946;21.002;2022-09-09T07:19:14;99921.53;;;13.47;100.00
50867;BME280;36839;51.946;21.002;2022-09-09T07:21:43;99930.34;;;13.51;100.00
50867;BME280;36839;51.946;21.002;2022-09-09T07:24:13;99932.25;;;13.53;100.00
50867;BME280;36839;51.946;21.002;2022-09-09T07:26:40;99932.25;;;13.53;100.00
50867;BME280;36839;51.946;21.002;2022-09-09T07:29:08;99931.42;;;13.55;100.00
50867;BME280;36839;51.946;21.002;2022-09-09T07:31:40;99937.41;;;13.62;100.00
50867;BME280;36839;51.946;21.002;2022-09-09T07:34:10;99943.52;;;13.62;100.00
50867;BME280;36839;51.946;21.002;2022-09-09T07:36:42;99946.50;;;13.68;100.00
50867;BME280;36839;51.946;21.002;2022-09-09T07:39:15;99944.81;;;13.69;100.00
50867;BME280;36839;51.946;21.002;2022-09-09T07:41:45;99955.26;;;13.78;100.00
50867;BME280;36839;51.946;21.002;2022-09-09T07:44:15;99957.39;;;13.83;100.00
50867;BME280;36839;51.946;21.002;2022-09-09T07:46:48;99963.80;;;13.84;100.00
50867;BME280;36839;51.946;21.002;2022-09-09T07:49:17;99962.92;;;13.86;100.00
50867;BME280;36839;51.946;21.002;2022-09-09T07:51:46;99962.92;;;13.86;100.00
50867;BME280;36839;51.946;21.002;2022-09-09T07:54:17;99958.55;;;13.80;100.00
50867;BME280;36839;51.946;21.002;2022-09-09T07:56:49;99968.09;;;13.92;100.00
50867;BME280;36839;51.946;21.002;2022-09-09T07:59:15;99968.59;;;13.97;100.00
50867;BME280;36839;51.946;21.002;2022-09-09T08:01:46;99968.59;;;13.97;100.00
50867;BME280;36839;51.946;21.002;2022-09-09T08:04:17;99973.28;;;13.99;100.00
50867;BME280;36839;51.946;21.002;2022-09-09T08:06:58;99973.28;;;13.99;100.00
50867;BME280;36839;51.946;21.002;2022-09-09T08:09:22;99961.09;;;13.97;100.00
50867;BME280;36839;51.946;21.002;2022-09-09T08:11:53;99967.32;;;14.08;100.00
50867;BME280;36839;51.946;21.002;2022-09-09T08:14:23;99971.48;;;14.08;100.00
50867;BME280;36839;51.946;21.002;2022-09-09T08:16:52;99978.73;;;14.07;100.00
50867;BME280;36839;51.946;21.002;2022-09-09T08:19:24;99977.09;;;14.06;100.00
50867;BME280;36839;51.946;21.002;2022-09-09T08:21:50;99983.10;;;14.13;100.00
50867;BME280;36839;51.946;21.002;2022-09-09T08:24:20;99988.35;;;14.14;100.00
50867;BME280;36839;51.946;21.002;2022-09-09T08:26:48;99988.35;;;14.14;100.00
50867;BME280;36839;51.946;21.002;2022-09-09T08:29:18;99977.35;;;14.25;100.00
50867;BME280;36839;51.946;21.002;2022-09-09T08:31:49;99977.80;;;14.33;100.00
50867;BME280;36839;51.946;21.002;2022-09-09T08:34:18;99982.75;;;14.36;100.00
50867;BME280;36839;51.946;21.002;2022-09-09T08:36:48;99982.75;;;14.36;100.00
50867;BME280;36839;51.946;21.002;2022-09-09T08:39:20;99994.64;;;14.39;100.00
50867;BME280;36839;51.946;21.002;2022-09-09T08:42:08;99994.30;;;14.45;100.00
50867;BME280;36839;51.946;21.002;2022-09-09T08:50:25;99998.42;;;14.48;100.00
50867;BME280;36839;51.946;21.002;2022-09-09T08:55:52;99991.45;;;14.50;100.00
50867;BME280;36839;51.946;21.002;2022-09-09T08:58:28;99996.19;;;14.66;100.00
50867;BME280;36839;51.946;21.002;2022-09-09T09:09:32;100005.74;;;14.76;100.00
50867;BME280;36839;51.946;21.002;2022-09-09T09:12:00;100005.74;;;14.76;100.00
50867;BME280;36839;51.946;21.002;2022-09-09T09:14:30;100010.05;;;14.85;100.00
50867;BME280;36839;51.946;21.002;2022-09-09T09:17:15;100012.25;;;14.88;100.00
50867;BME280;36839;51.946;21.002;2022-09-09T09:19:47;100009.16;;;14.90;100.00
50867;BME280;36839;51.946;21.002;2022-09-09T09:27:28;100010.31;;;15.02;100.00
50867;BME280;36839;51.946;21.002;2022-09-09T09:29:54;100011.09;;;15.05;100.00
50867;BME280;36839;51.946;21.002;2022-09-09T09:32:24;100014.23;;;15.18;100.00
50867;BME280;36839;51.946;21.002;2022-09-09T09:34:56;100014.17;;;15.20;100.00
50867;BME280;36839;51.946;21.002;2022-09-09T09:37:33;100015.69;;;15.29;100.00
50867;BME280;36839;51.946;21.002;2022-09-09T09:40:09;100024.49;;;15.33;100.00
50867;BME280;36839;51.946;21.002;2022-09-09T09:42:57;100024.49;;;15.33;100.00
50867;BME280;36839;51.946;21.002;2022-09-09T09:45:32;100004.16;;;15.35;100.00
50867;BME280;36839;51.946;21.002;2022-09-09T09:48:05;99995.70;;;15.40;100.00
50867;BME280;36839;51.946;21.002;2022-09-09T09:50:35;100004.79;;;15.46;100.00
50867;BME280;36839;51.946;21.002;2022-09-09T09:53:30;100014.22;;;15.48;100.00
50867;BME280;36839;51.946;21.002;2022-09-09T09:55:44;100019.64;;;15.55;100.00
50867;BME280;36839;51.946;21.002;2022-09-09T09:58:17;100022.59;;;15.61;100.00
50867;BME280;36839;51.946;21.002;2022-09-09T10:00:50;100022.59;;;15.61;100.00
50867;BME280;36839;51.946;21.002;2022-09-09T10:03:26;100030.92;;;15.64;100.00
50867;BME280;36839;51.946;21.002;2022-09-09T10:05:59;100022.34;;;15.60;100.00
50867;BME280;36839;51.946;21.002;2022-09-09T10:08:29;100022.34;;;15.60;100.00
50867;BME280;36839;51.946;21.002;2022-09-09T10:16:38;100042.67;;;15.58;100.00
50867;BME280;36839;51.946;21.002;2022-09-09T10:19:17;100042.67;;;15.58;100.00
50867;BME280;36839;51.946;21.002;2022-09-09T10:24:54;100044.32;;;15.59;100.00
50867;BME280;36839;51.946;21.002;2022-09-09T10:32:49;100065.09;;;15.51;100.00
50867;BME280;36839;51.946;21.002;2022-09-09T10:35:33;100077.09;;;15.49;100.00
50867;BME280;36839;51.946;21.002;2022-09-09T10:43:44;100077.55;;;15.53;100.00
50867;BME280;36839;51.946;21.002;2022-09-09T10:49:02;100078.61;;;15.57;100.00
50867;BME280;36839;51.946;21.002;2022-09-09T10:51:31;100078.61;;;15.57;100.00
50867;BME280;36839;51.946;21.002;2022-09-09T10:57:17;100082.35;;;15.50;100.00
50867;BME280;36839;51.946;21.002;2022-09-09T10:59:47;100075.39;;;15.50;100.00
50867;BME280;36839;51.946;21.002;2022-09-09T11:05:04;100081.33;;;15.46;100.00
50867;BME280;36839;51.946;21.002;2022-09-09T11:07:34;100081.33;;;15.46;100.00
50867;BME280;36839;51.946;21.002;2022-09-09T11:10:06;100075.14;;;15.49;100.00
50867;BME280;36839;51.946;21.002;2022-09-09T11:12:35;100083.86;;;15.59;100.00
50867;BME280;36839;51.946;21.002;2022-09-09T11:15:14;100083.86;;;15.59;100.00
50867;BME280;36839;51.946;21.002;2022-09-09T11:17:53;100087.77;;;15.60;100.00
50867;BME280;36839;51.946;21.002;2022-09-09T11:20:27;100097.73;;;15.64;100.00
50867;BME280;36839;51.946;21.002;2022-09-09T11:23:17;100101.94;;;15.61;100.00
50867;BME280;36839;51.946;21.002;2022-09-09T11:25:55;100101.94;;;15.61;100.00
50867;BME280;36839;51.946;21.002;2022-09-09T11:31:07;100095.56;;;15.58;100.00
50867;BME280;36839;51.946;21.002;2022-09-09T11:42:19;100101.96;;;15.59;100.00
50867;BME280;36839;51.946;21.002;2022-09-09T11:44:54;100107.53;;;15.59;100.00
50867;BME280;36839;51.946;21.002;2022-09-09T11:47:29;100105.16;;;15.68;100.00
50867;BME280;36839;51.946;21.002;2022-09-09T11:52:48;100105.47;;;15.81;100.00
50867;BME280;36839;51.946;21.002;2022-09-09T11:55:35;100102.28;;;15.87;100.00
50867;BME280;36839;51.946;21.002;2022-09-09T11:58:05;100105.27;;;15.91;100.00
50867;BME280;36839;51.946;21.002;2022-09-09T12:00:38;100105.27;;;15.91;100.00
50867;BME280;36839;51.946;21.002;2022-09-09T12:08:46;100116.27;;;15.85;100.00
50867;BME280;36839;51.946;21.002;2022-09-09T12:11:25;100105.84;;;15.77;100.00
50867;BME280;36839;51.946;21.002;2022-09-09T12:13:55;100105.84;;;15.77;100.00
50867;BME280;36839;51.946;21.002;2022-09-09T12:16:32;100110.33;;;15.75;100.00
50867;BME280;36839;51.946;21.002;2022-09-09T12:24:18;100117.03;;;15.74;100.00
50867;BME280;36839;51.946;21.002;2022-09-09T12:27:11;100121.55;;;15.70;100.00
50867;BME280;36839;51.946;21.002;2022-09-09T12:29:55;100121.55;;;15.70;100.00
50867;BME280;36839;51.946;21.002;2022-09-09T12:32:27;100113.70;;;15.72;100.00
50867;BME280;36839;51.946;21.002;2022-09-09T12:38:00;100092.31;;;15.70;100.00
50867;BME280;36839;51.946;21.002;2022-09-09T12:40:25;100092.31;;;15.70;100.00
50867;BME280;36839;51.946;21.002;2022-09-09T12:42:54;100091.48;;;15.69;100.00
50867;BME280;36839;51.946;21.002;2022-09-09T12:45:29;100091.48;;;15.69;100.00
50867;BME280;36839;51.946;21.002;2022-09-09T12:48:05;100088.36;;;15.74;100.00
50867;BME280;36839;51.946;21.002;2022-09-09T12:50:36;100089.92;;;15.93;100.00
50867;BME280;36839;51.946;21.002;2022-09-09T12:53:12;100089.92;;;15.93;100.00
50867;BME280;36839;51.946;21.002;2022-09-09T12:55:49;100092.84;;;15.99;100.00
50867;BME280;36839;51.946;21.002;2022-09-09T12:58:13;100099.78;;;16.02;100.00
50867;BME280;36839;51.946;21.002;2022-09-09T13:00:50;100100.80;;;16.06;100.00
50867;BME280;36839;51.946;21.002;2022-09-09T13:03:24;100100.80;;;16.06;100.00
50867;BME280;36839;51.946;21.002;2022-09-09T13:05:54;100093.77;;;16.09;100.00
50867;BME280;36839;51.946;21.002;2022-09-09T13:08:24;100091.66;;;16.17;100.00
50867;BME280;36839;51.946;21.002;2022-09-09T13:11:01;100091.66;;;16.17;100.00
50867;BME280;36839;51.946;21.002;2022-09-09T13:13:38;100082.72;;;16.17;100.00
50867;BME280;36839;51.946;21.002;2022-09-09T13:16:25;100087.00;;;16.26;100.00
50867;BME280;36839;51.946;21.002;2022-09-09T13:18:52;100097.07;;;16.24;100.00
50867;BME280;36839;51.946;21.002;2022-09-09T13:21:34;100097.07;;;16.24;100.00
50867;BME280;36839;51.946;21.002;2022-09-09T13:26:56;100094.80;;;15.99;100.00
50867;BME280;36839;51.946;21.002;2022-09-09T13:29:24;100094.80;;;15.99;100.00
50867;BME280;36839;51.946;21.002;2022-09-09T13:31:53;100097.85;;;15.86;100.00
50867;BME280;36839;51.946;21.002;2022-09-09T13:34:31;100090.72;;;15.80;100.00
50867;BME280;36839;51.946;21.002;2022-09-09T13:37:16;100097.68;;;15.80;100.00
50867;BME280;36839;51.946;21.002;2022-09-09T13:39:36;100098.94;;;15.74;100.00
50867;BME280;36839;51.946;21.002;2022-09-09T13:42:19;100101.80;;;15.69;100.00
50867;BME280;36839;51.946;21.002;2022-09-09T13:44:40;100101.80;;;15.69;100.00
50867;BME280;36839;51.946;21.002;2022-09-09T13:47:22;100100.23;;;15.63;100.00
50867;BME280;36839;51.946;21.002;2022-09-09T13:49:55;100092.53;;;15.57;100.00
50867;BME280;36839;51.946;21.002;2022-09-09T13:52:21;100108.05;;;15.63;100.00
50867;BME280;36839;51.946;21.002;2022-09-09T13:54:51;100098.56;;;15.64;100.00
50867;BME280;36839;51.946;21.002;2022-09-09T13:57:22;100098.56;;;15.64;100.00
50867;BME280;36839;51.946;21.002;2022-09-09T14:00:10;100102.73;;;15.64;100.00
50867;BME280;36839;51.946;21.002;2022-09-09T14:02:45;100102.76;;;15.62;100.00
50867;BME280;36839;51.946;21.002;2022-09-09T14:05:19;100105.06;;;15.57;100.00
50867;BME280;36839;51.946;21.002;2022-09-09T14:07:50;100095.63;;;15.56;100.00
50867;BME280;36839;51.946;21.002;2022-09-09T14:10:16;100109.28;;;15.55;100.00
50867;BME280;36839;51.946;21.002;2022-09-09T14:12:46;100111.52;;;15.53;100.00
50867;BME280;36839;51.946;21.002;2022-09-09T14:15:14;100111.52;;;15.53;100.00
50867;BME280;36839;51.946;21.002;2022-09-09T14:17:42;100114.16;;;15.47;100.00
50867;BME280;36839;51.946;21.002;2022-09-09T14:20:12;100113.34;;;15.46;100.00
50867;BME280;36839;51.946;21.002;2022-09-09T14:22:45;100115.86;;;15.45;100.00
50867;BME280;36839;51.946;21.002;2022-09-09T14:25:12;100115.86;;;15.45;100.00
50867;BME280;36839;51.946;21.002;2022-09-09T14:27:39;100119.36;;;15.51;100.00
50867;BME280;36839;51.946;21.002;2022-09-09T14:30:08;100113.02;;;15.48;100.00
50867;BME280;36839;51.946;21.002;2022-09-09T14:32:45;100119.67;;;15.49;100.00
50867;BME280;36839;51.946;21.002;2022-09-09T14:35:17;100122.92;;;15.54;100.00
50867;BME280;36839;51.946;21.002;2022-09-09T14:37:49;100117.58;;;15.57;100.00
50867;BME280;36839;51.946;21.002;2022-09-09T14:40:21;100113.33;;;15.62;100.00
50867;BME280;36839;51.946;21.002;2022-09-09T14:42:52;100113.33;;;15.62;100.00
50867;BME280;36839;51.946;21.002;2022-09-09T14:45:21;100119.59;;;15.70;100.00
50867;BME280;36839;51.946;21.002;2022-09-09T14:47:53;100112.63;;;15.70;100.00
50867;BME280;36839;51.946;21.002;2022-09-09T14:50:21;100113.14;;;15.73;100.00
50867;BME280;36839;51.946;21.002;2022-09-09T14:52:50;100103.31;;;15.78;100.00
50867;BME280;36839;51.946;21.002;2022-09-09T14:55:18;100103.88;;;15.77;100.00
50867;BME280;36839;51.946;21.002;2022-09-09T14:57:45;100111.09;;;15.78;100.00